Terminal Aerodrome Forecast
Issued by NWS

Home | Current Version | Previous Version | Text Only | Print | Product List | Glossary On
Versions: 1 2 3 4 5 6 7 8 9 10 11 12
000
FTUS42 KMLB 222300
TAFSUA
TAF
KSUA 222333Z 2300/2324 11007KT P6SM SCT040
     FM230300 VRB03KT P6SM FEW250
     FM231500 26005KT P6SM FEW030
     FM231900 09005KT P6SM SCT040=

USA.gov is the U.S. government's official web portal to all federal, state and local government web resources and services.